sensor_id;sensor_type;location;lat;lon;timestamp;P1;durP1;ratioP1;P2;durP2;ratioP2
2462;SDS011;1243;54.298;10.172;2023-08-21T00:00:59;12.50;;;5.40;;
2462;SDS011;1243;54.298;10.172;2023-08-21T00:03:24;10.93;;;5.40;;
2462;SDS011;1243;54.298;10.172;2023-08-21T00:05:50;17.30;;;6.33;;
2462;SDS011;1243;54.298;10.172;2023-08-21T00:08:16;10.03;;;6.37;;
2462;SDS011;1243;54.298;10.172;2023-08-21T00:10:41;10.27;;;5.83;;
2462;SDS011;1243;54.298;10.172;2023-08-21T00:13:07;9.73;;;5.00;;
2462;SDS011;1243;54.298;10.172;2023-08-21T00:15:33;6.50;;;4.60;;
2462;SDS011;1243;54.298;10.172;2023-08-21T00:17:59;14.57;;;5.70;;
2462;SDS011;1243;54.298;10.172;2023-08-21T00:20:25;8.27;;;5.73;;
2462;SDS011;1243;54.298;10.172;2023-08-21T00:22:51;9.83;;;5.40;;
2462;SDS011;1243;54.298;10.172;2023-08-21T00:25:17;13.70;;;7.30;;
2462;SDS011;1243;54.298;10.172;2023-08-21T00:27:43;4.80;;;4.23;;
2462;SDS011;1243;54.298;10.172;2023-08-21T00:30:09;16.77;;;5.30;;
2462;SDS011;1243;54.298;10.172;2023-08-21T00:32:35;8.50;;;5.80;;
2462;SDS011;1243;54.298;10.172;2023-08-21T00:35:01;10.63;;;6.13;;
2462;SDS011;1243;54.298;10.172;2023-08-21T00:37:26;8.77;;;5.70;;
2462;SDS011;1243;54.298;10.172;2023-08-21T00:39:52;13.00;;;7.43;;
2462;SDS011;1243;54.298;10.172;2023-08-21T00:42:18;6.83;;;5.43;;
2462;SDS011;1243;54.298;10.172;2023-08-21T00:44:43;10.87;;;6.10;;
2462;SDS011;1243;54.298;10.172;2023-08-21T00:47:09;9.67;;;5.63;;
2462;SDS011;1243;54.298;10.172;2023-08-21T00:49:35;7.97;;;6.03;;
2462;SDS011;1243;54.298;10.172;2023-08-21T00:52:01;9.57;;;5.93;;
2462;SDS011;1243;54.298;10.172;2023-08-21T00:54:28;9.43;;;5.20;;
2462;SDS011;1243;54.298;10.172;2023-08-21T00:56:56;9.50;;;5.13;;
2462;SDS011;1243;54.298;10.172;2023-08-21T00:59:22;9.63;;;5.10;;
2462;SDS011;1243;54.298;10.172;2023-08-21T01:01:48;6.03;;;4.53;;
2462;SDS011;1243;54.298;10.172;2023-08-21T01:04:16;5.30;;;4.30;;
2462;SDS011;1243;54.298;10.172;2023-08-21T01:06:42;13.77;;;5.93;;
2462;SDS011;1243;54.298;10.172;2023-08-21T01:09:18;7.87;;;5.80;;
2462;SDS011;1243;54.298;10.172;2023-08-21T01:14:54;7.60;;;5.00;;
2462;SDS011;1243;54.298;10.172;2023-08-21T01:17:24;8.97;;;4.50;;
2462;SDS011;1243;54.298;10.172;2023-08-21T01:19:52;4.97;;;4.40;;
2462;SDS011;1243;54.298;10.172;2023-08-21T01:22:19;8.73;;;4.20;;
2462;SDS011;1243;54.298;10.172;2023-08-21T01:24:44;7.60;;;4.77;;
2462;SDS011;1243;54.298;10.172;2023-08-21T01:27:10;9.70;;;5.20;;
2462;SDS011;1243;54.298;10.172;2023-08-21T01:29:39;9.07;;;5.67;;
2462;SDS011;1243;54.298;10.172;2023-08-21T01:32:10;15.90;;;5.10;;
2462;SDS011;1243;54.298;10.172;2023-08-21T01:34:46;6.50;;;4.73;;
2462;SDS011;1243;54.298;10.172;2023-08-21T01:37:14;6.03;;;5.13;;
2462;SDS011;1243;54.298;10.172;2023-08-21T01:39:42;7.67;;;5.27;;
2462;SDS011;1243;54.298;10.172;2023-08-21T01:42:07;6.73;;;6.13;;
2462;SDS011;1243;54.298;10.172;2023-08-21T01:44:33;10.97;;;6.97;;
2462;SDS011;1243;54.298;10.172;2023-08-21T01:46:59;7.30;;;5.50;;
2462;SDS011;1243;54.298;10.172;2023-08-21T01:49:24;11.97;;;6.60;;
2462;SDS011;1243;54.298;10.172;2023-08-21T01:51:50;7.80;;;6.20;;
2462;SDS011;1243;54.298;10.172;2023-08-21T01:54:16;7.53;;;6.17;;
2462;SDS011;1243;54.298;10.172;2023-08-21T01:56:41;8.07;;;5.90;;
2462;SDS011;1243;54.298;10.172;2023-08-21T01:59:07;6.60;;;5.87;;
2462;SDS011;1243;54.298;10.172;2023-08-21T02:01:34;5.90;;;4.60;;
2462;SDS011;1243;54.298;10.172;2023-08-21T02:03:59;6.27;;;5.67;;
2462;SDS011;1243;54.298;10.172;2023-08-21T02:06:25;8.17;;;5.57;;
2462;SDS011;1243;54.298;10.172;2023-08-21T02:08:51;9.57;;;7.00;;
2462;SDS011;1243;54.298;10.172;2023-08-21T02:11:17;20.50;;;9.30;;
2462;SDS011;1243;54.298;10.172;2023-08-21T02:13:42;10.40;;;8.57;;
2462;SDS011;1243;54.298;10.172;2023-08-21T02:16:08;14.43;;;8.03;;
2462;SDS011;1243;54.298;10.172;2023-08-21T02:18:34;19.63;;;8.93;;
2462;SDS011;1243;54.298;10.172;2023-08-21T02:21:00;16.20;;;8.67;;
2462;SDS011;1243;54.298;10.172;2023-08-21T02:23:26;21.10;;;9.53;;
2462;SDS011;1243;54.298;10.172;2023-08-21T02:25:53;23.17;;;9.17;;
2462;SDS011;1243;54.298;10.172;2023-08-21T02:28:19;18.37;;;10.10;;
2462;SDS011;1243;54.298;10.172;2023-08-21T02:30:45;22.90;;;9.40;;
2462;SDS011;1243;54.298;10.172;2023-08-21T02:33:11;32.17;;;10.50;;
2462;SDS011;1243;54.298;10.172;2023-08-21T02:35:38;24.90;;;10.97;;
2462;SDS011;1243;54.298;10.172;2023-08-21T02:38:03;15.47;;;9.77;;
2462;SDS011;1243;54.298;10.172;2023-08-21T02:40:30;25.53;;;12.40;;
2462;SDS011;1243;54.298;10.172;2023-08-21T02:42:58;20.77;;;11.43;;
2462;SDS011;1243;54.298;10.172;2023-08-21T02:45:24;18.00;;;10.20;;
2462;SDS011;1243;54.298;10.172;2023-08-21T02:47:50;23.50;;;12.07;;
2462;SDS011;1243;54.298;10.172;2023-08-21T02:50:15;24.67;;;10.20;;
2462;SDS011;1243;54.298;10.172;2023-08-21T02:52:41;18.77;;;9.77;;
2462;SDS011;1243;54.298;10.172;2023-08-21T02:55:07;18.80;;;11.57;;
2462;SDS011;1243;54.298;10.172;2023-08-21T02:57:34;17.20;;;10.63;;
2462;SDS011;1243;54.298;10.172;2023-08-21T03:00:00;22.27;;;11.70;;
2462;SDS011;1243;54.298;10.172;2023-08-21T03:02:26;15.33;;;9.23;;
2462;SDS011;1243;54.298;10.172;2023-08-21T03:04:52;13.83;;;8.90;;
2462;SDS011;1243;54.298;10.172;2023-08-21T03:07:18;17.90;;;9.73;;
2462;SDS011;1243;54.298;10.172;2023-08-21T03:09:44;20.37;;;9.33;;
2462;SDS011;1243;54.298;10.172;2023-08-21T03:12:14;21.93;;;11.37;;
2462;SDS011;1243;54.298;10.172;2023-08-21T03:14:40;22.33;;;10.23;;
2462;SDS011;1243;54.298;10.172;2023-08-21T03:17:07;20.23;;;9.20;;
2462;SDS011;1243;54.298;10.172;2023-08-21T03:19:33;31.10;;;10.47;;
2462;SDS011;1243;54.298;10.172;2023-08-21T03:21:59;22.10;;;10.33;;
2462;SDS011;1243;54.298;10.172;2023-08-21T03:24:25;18.73;;;9.90;;
2462;SDS011;1243;54.298;10.172;2023-08-21T03:26:51;16.63;;;9.20;;
2462;SDS011;1243;54.298;10.172;2023-08-21T03:29:16;20.03;;;9.33;;
2462;SDS011;1243;54.298;10.172;2023-08-21T03:31:42;15.30;;;8.50;;
2462;SDS011;1243;54.298;10.172;2023-08-21T03:34:09;16.53;;;10.20;;
2462;SDS011;1243;54.298;10.172;2023-08-21T03:36:35;18.93;;;9.53;;
2462;SDS011;1243;54.298;10.172;2023-08-21T03:39:03;18.80;;;9.50;;
2462;SDS011;1243;54.298;10.172;2023-08-21T03:41:30;15.20;;;9.77;;
2462;SDS011;1243;54.298;10.172;2023-08-21T03:43:57;21.47;;;10.03;;
2462;SDS011;1243;54.298;10.172;2023-08-21T03:46:23;19.80;;;9.80;;
2462;SDS011;1243;54.298;10.172;2023-08-21T03:48:49;19.23;;;8.50;;
2462;SDS011;1243;54.298;10.172;2023-08-21T03:51:16;19.10;;;10.00;;
2462;SDS011;1243;54.298;10.172;2023-08-21T03:53:43;19.20;;;9.67;;
2462;SDS011;1243;54.298;10.172;2023-08-21T03:56:08;20.70;;;10.47;;
2462;SDS011;1243;54.298;10.172;2023-08-21T03:58:34;16.90;;;9.70;;
2462;SDS011;1243;54.298;10.172;2023-08-21T04:01:01;19.23;;;9.60;;
2462;SDS011;1243;54.298;10.172;2023-08-21T04:03:27;21.13;;;9.03;;
2462;SDS011;1243;54.298;10.172;2023-08-21T04:05:53;17.47;;;10.17;;
2462;SDS011;1243;54.298;10.172;2023-08-21T04:08:21;24.77;;;11.33;;
2462;SDS011;1243;54.298;10.172;2023-08-21T04:10:47;12.70;;;9.27;;
2462;SDS011;1243;54.298;10.172;2023-08-21T04:13:17;18.53;;;10.60;;
2462;SDS011;1243;54.298;10.172;2023-08-21T04:15:48;19.80;;;10.33;;
2462;SDS011;1243;54.298;10.172;2023-08-21T04:18:14;14.77;;;9.30;;
2462;SDS011;1243;54.298;10.172;2023-08-21T04:20:41;14.20;;;8.50;;
2462;SDS011;1243;54.298;10.172;2023-08-21T04:23:07;18.03;;;10.10;;
2462;SDS011;1243;54.298;10.172;2023-08-21T04:25:32;16.40;;;9.80;;
2462;SDS011;1243;54.298;10.172;2023-08-21T04:27:58;19.10;;;11.07;;
2462;SDS011;1243;54.298;10.172;2023-08-21T04:30:24;18.23;;;9.00;;
2462;SDS011;1243;54.298;10.172;2023-08-21T04:32:49;13.27;;;8.63;;
2462;SDS011;1243;54.298;10.172;2023-08-21T04:35:15;11.10;;;8.43;;
2462;SDS011;1243;54.298;10.172;2023-08-21T04:37:46;15.57;;;8.90;;
2462;SDS011;1243;54.298;10.172;2023-08-21T04:40:13;13.80;;;8.33;;
2462;SDS011;1243;54.298;10.172;2023-08-21T04:42:40;10.30;;;8.23;;
2462;SDS011;1243;54.298;10.172;2023-08-21T04:45:06;15.00;;;9.03;;
2462;SDS011;1243;54.298;10.172;2023-08-21T04:47:32;14.10;;;8.80;;
2462;SDS011;1243;54.298;10.172;2023-08-21T04:49:58;14.63;;;8.33;;
2462;SDS011;1243;54.298;10.172;2023-08-21T04:52:25;10.37;;;7.30;;
2462;SDS011;1243;54.298;10.172;2023-08-21T04:54:53;14.77;;;9.00;;
2462;SDS011;1243;54.298;10.172;2023-08-21T04:57:19;12.23;;;7.80;;
2462;SDS011;1243;54.298;10.172;2023-08-21T04:59:46;17.73;;;9.20;;
2462;SDS011;1243;54.298;10.172;2023-08-21T05:02:12;14.67;;;8.83;;
2462;SDS011;1243;54.298;10.172;2023-08-21T05:04:38;16.17;;;9.07;;
2462;SDS011;1243;54.298;10.172;2023-08-21T05:07:04;12.67;;;8.90;;
2462;SDS011;1243;54.298;10.172;2023-08-21T05:09:31;14.50;;;9.63;;
2462;SDS011;1243;54.298;10.172;2023-08-21T05:11:58;13.90;;;8.17;;
2462;SDS011;1243;54.298;10.172;2023-08-21T05:14:24;14.90;;;7.23;;
2462;SDS011;1243;54.298;10.172;2023-08-21T05:16:49;14.90;;;7.80;;
2462;SDS011;1243;54.298;10.172;2023-08-21T05:19:16;11.23;;;7.67;;
2462;SDS011;1243;54.298;10.172;2023-08-21T05:21:43;16.53;;;8.07;;
2462;SDS011;1243;54.298;10.172;2023-08-21T05:24:09;16.00;;;8.57;;
2462;SDS011;1243;54.298;10.172;2023-08-21T05:26:35;18.60;;;8.20;;
2462;SDS011;1243;54.298;10.172;2023-08-21T05:29:01;15.37;;;9.43;;
2462;SDS011;1243;54.298;10.172;2023-08-21T05:31:27;16.47;;;9.10;;
2462;SDS011;1243;54.298;10.172;2023-08-21T05:33:53;14.17;;;8.87;;
2462;SDS011;1243;54.298;10.172;2023-08-21T05:36:19;12.80;;;9.57;;
2462;SDS011;1243;54.298;10.172;2023-08-21T05:38:45;13.70;;;8.27;;
2462;SDS011;1243;54.298;10.172;2023-08-21T05:41:13;16.00;;;8.30;;
2462;SDS011;1243;54.298;10.172;2023-08-21T05:43:39;16.50;;;8.37;;
2462;SDS011;1243;54.298;10.172;2023-08-21T05:46:07;14.53;;;8.67;;
2462;SDS011;1243;54.298;10.172;2023-08-21T05:48:34;18.13;;;10.60;;
2462;SDS011;1243;54.298;10.172;2023-08-21T05:51:00;19.40;;;10.47;;
2462;SDS011;1243;54.298;10.172;2023-08-21T05:53:26;16.43;;;9.30;;
2462;SDS011;1243;54.298;10.172;2023-08-21T05:55:52;24.23;;;10.83;;
2462;SDS011;1243;54.298;10.172;2023-08-21T05:58:18;16.90;;;9.97;;
2462;SDS011;1243;54.298;10.172;2023-08-21T06:00:46;17.83;;;10.37;;
2462;SDS011;1243;54.298;10.172;2023-08-21T06:03:12;19.07;;;10.60;;
2462;SDS011;1243;54.298;10.172;2023-08-21T06:05:38;20.73;;;10.07;;
2462;SDS011;1243;54.298;10.172;2023-08-21T06:08:04;14.87;;;9.33;;
2462;SDS011;1243;54.298;10.172;2023-08-21T06:10:31;21.30;;;11.17;;
2462;SDS011;1243;54.298;10.172;2023-08-21T06:12:56;21.80;;;9.33;;
2462;SDS011;1243;54.298;10.172;2023-08-21T06:15:23;16.30;;;8.23;;
2462;SDS011;1243;54.298;10.172;2023-08-21T06:17:48;14.27;;;9.00;;
2462;SDS011;1243;54.298;10.172;2023-08-21T06:20:15;16.00;;;8.23;;
2462;SDS011;1243;54.298;10.172;2023-08-21T06:22:41;12.83;;;8.00;;
2462;SDS011;1243;54.298;10.172;2023-08-21T06:25:08;15.07;;;7.87;;
2462;SDS011;1243;54.298;10.172;2023-08-21T06:27:35;10.33;;;7.30;;
2462;SDS011;1243;54.298;10.172;2023-08-21T06:30:02;9.80;;;8.03;;
2462;SDS011;1243;54.298;10.172;2023-08-21T06:32:28;13.37;;;7.33;;
2462;SDS011;1243;54.298;10.172;2023-08-21T06:34:54;13.27;;;7.50;;
2462;SDS011;1243;54.298;10.172;2023-08-21T06:37:19;9.53;;;6.57;;
2462;SDS011;1243;54.298;10.172;2023-08-21T06:39:45;14.37;;;7.13;;
2462;SDS011;1243;54.298;10.172;2023-08-21T06:42:11;13.27;;;7.43;;
2462;SDS011;1243;54.298;10.172;2023-08-21T06:44:37;8.53;;;6.40;;
2462;SDS011;1243;54.298;10.172;2023-08-21T06:47:04;10.73;;;6.50;;
2462;SDS011;1243;54.298;10.172;2023-08-21T06:49:30;12.77;;;6.63;;
2462;SDS011;1243;54.298;10.172;2023-08-21T06:51:56;14.20;;;7.57;;
2462;SDS011;1243;54.298;10.172;2023-08-21T06:54:22;9.00;;;5.53;;
2462;SDS011;1243;54.298;10.172;2023-08-21T06:56:48;14.07;;;6.20;;
2462;SDS011;1243;54.298;10.172;2023-08-21T06:59:17;11.30;;;5.20;;
2462;SDS011;1243;54.298;10.172;2023-08-21T07:01:43;8.23;;;5.70;;
2462;SDS011;1243;54.298;10.172;2023-08-21T07:04:08;14.20;;;5.93;;
2462;SDS011;1243;54.298;10.172;2023-08-21T07:06:35;7.77;;;5.10;;
2462;SDS011;1243;54.298;10.172;2023-08-21T07:09:01;7.30;;;5.23;;
2462;SDS011;1243;54.298;10.172;2023-08-21T07:11:27;9.70;;;5.23;;
2462;SDS011;1243;54.298;10.172;2023-08-21T07:13:52;10.00;;;4.70;;
2462;SDS011;1243;54.298;10.172;2023-08-21T07:16:20;10.33;;;4.83;;
2462;SDS011;1243;54.298;10.172;2023-08-21T07:18:45;7.97;;;4.40;;
2462;SDS011;1243;54.298;10.172;2023-08-21T07:21:32;9.57;;;5.00;;
2462;SDS011;1243;54.298;10.172;2023-08-21T07:24:00;5.90;;;4.00;;
2462;SDS011;1243;54.298;10.172;2023-08-21T07:26:27;7.97;;;4.30;;
2462;SDS011;1243;54.298;10.172;2023-08-21T07:28:55;7.20;;;3.77;;
2462;SDS011;1243;54.298;10.172;2023-08-21T07:31:21;5.80;;;4.10;;
2462;SDS011;1243;54.298;10.172;2023-08-21T07:33:48;10.23;;;3.50;;
2462;SDS011;1243;54.298;10.172;2023-08-21T07:36:20;6.00;;;3.03;;
2462;SDS011;1243;54.298;10.172;2023-08-21T07:38:45;4.57;;;2.80;;
2462;SDS011;1243;54.298;10.172;2023-08-21T07:41:12;10.53;;;3.20;;
2462;SDS011;1243;54.298;10.172;2023-08-21T07:43:39;7.60;;;3.10;;
2462;SDS011;1243;54.298;10.172;2023-08-21T07:46:06;7.03;;;3.23;;
2462;SDS011;1243;54.298;10.172;2023-08-21T07:48:36;5.27;;;2.57;;
2462;SDS011;1243;54.298;10.172;2023-08-21T07:51:02;8.50;;;2.60;;
2462;SDS011;1243;54.298;10.172;2023-08-21T07:53:27;8.50;;;2.50;;
2462;SDS011;1243;54.298;10.172;2023-08-21T07:55:57;7.07;;;2.80;;
2462;SDS011;1243;54.298;10.172;2023-08-21T07:58:23;8.17;;;2.73;;
2462;SDS011;1243;54.298;10.172;2023-08-21T08:00:49;5.70;;;2.80;;
2462;SDS011;1243;54.298;10.172;2023-08-21T08:03:16;6.83;;;2.50;;
2462;SDS011;1243;54.298;10.172;2023-08-21T08:05:42;4.63;;;2.80;;
2462;SDS011;1243;54.298;10.172;2023-08-21T08:08:09;4.60;;;2.63;;
2462;SDS011;1243;54.298;10.172;2023-08-21T08:10:38;4.60;;;2.33;;
2462;SDS011;1243;54.298;10.172;2023-08-21T08:13:05;7.57;;;2.80;;
2462;SDS011;1243;54.298;10.172;2023-08-21T08:15:31;5.80;;;2.20;;
2462;SDS011;1243;54.298;10.172;2023-08-21T08:17:59;5.97;;;2.20;;
2462;SDS011;1243;54.298;10.172;2023-08-21T08:20:24;7.00;;;2.20;;
2462;SDS011;1243;54.298;10.172;2023-08-21T08:22:52;8.00;;;2.37;;
2462;SDS011;1243;54.298;10.172;2023-08-21T08:25:18;3.63;;;1.93;;
2462;SDS011;1243;54.298;10.172;2023-08-21T08:27:44;4.13;;;2.30;;
2462;SDS011;1243;54.298;10.172;2023-08-21T08:30:09;3.80;;;2.00;;
2462;SDS011;1243;54.298;10.172;2023-08-21T08:32:35;7.77;;;2.30;;
2462;SDS011;1243;54.298;10.172;2023-08-21T08:35:01;7.23;;;2.50;;
2462;SDS011;1243;54.298;10.172;2023-08-21T08:37:27;6.87;;;2.50;;
2462;SDS011;1243;54.298;10.172;2023-08-21T08:39:53;4.13;;;2.03;;
2462;SDS011;1243;54.298;10.172;2023-08-21T08:42:19;4.37;;;2.80;;
2462;SDS011;1243;54.298;10.172;2023-08-21T08:44:44;6.03;;;2.30;;
2462;SDS011;1243;54.298;10.172;2023-08-21T08:47:11;8.93;;;2.50;;
2462;SDS011;1243;54.298;10.172;2023-08-21T08:49:38;7.10;;;2.33;;
2462;SDS011;1243;54.298;10.172;2023-08-21T08:52:04;3.57;;;1.90;;
2462;SDS011;1243;54.298;10.172;2023-08-21T08:54:30;6.80;;;2.43;;
2462;SDS011;1243;54.298;10.172;2023-08-21T08:56:56;4.63;;;2.20;;
2462;SDS011;1243;54.298;10.172;2023-08-21T08:59:23;4.30;;;2.70;;
2462;SDS011;1243;54.298;10.172;2023-08-21T09:01:49;2.83;;;1.53;;
2462;SDS011;1243;54.298;10.172;2023-08-21T09:04:15;7.73;;;2.40;;
2462;SDS011;1243;54.298;10.172;2023-08-21T09:06:40;5.30;;;2.40;;
2462;SDS011;1243;54.298;10.172;2023-08-21T09:09:07;4.03;;;1.60;;
2462;SDS011;1243;54.298;10.172;2023-08-21T09:11:33;4.53;;;1.90;;
2462;SDS011;1243;54.298;10.172;2023-08-21T09:13:59;5.50;;;1.60;;
2462;SDS011;1243;54.298;10.172;2023-08-21T09:16:25;4.80;;;1.90;;
2462;SDS011;1243;54.298;10.172;2023-08-21T09:18:56;7.10;;;3.47;;
2462;SDS011;1243;54.298;10.172;2023-08-21T09:21:22;7.70;;;2.40;;
2462;SDS011;1243;54.298;10.172;2023-08-21T09:23:50;8.97;;;1.97;;
2462;SDS011;1243;54.298;10.172;2023-08-21T09:26:23;3.83;;;1.50;;
2462;SDS011;1243;54.298;10.172;2023-08-21T09:28:49;3.50;;;2.10;;
2462;SDS011;1243;54.298;10.172;2023-08-21T09:31:16;6.50;;;2.67;;
2462;SDS011;1243;54.298;10.172;2023-08-21T09:33:54;1.93;;;1.33;;
2462;SDS011;1243;54.298;10.172;2023-08-21T09:36:22;5.03;;;1.53;;
2462;SDS011;1243;54.298;10.172;2023-08-21T09:38:48;5.87;;;1.50;;
2462;SDS011;1243;54.298;10.172;2023-08-21T09:41:15;12.80;;;2.07;;
2462;SDS011;1243;54.298;10.172;2023-08-21T09:43:45;5.73;;;2.27;;
2462;SDS011;1243;54.298;10.172;2023-08-21T09:46:13;5.20;;;1.50;;
2462;SDS011;1243;54.298;10.172;2023-08-21T09:48:41;3.23;;;1.57;;
2462;SDS011;1243;54.298;10.172;2023-08-21T09:51:08;3.00;;;1.90;;
2462;SDS011;1243;54.298;10.172;2023-08-21T09:53:35;2.77;;;1.50;;
2462;SDS011;1243;54.298;10.172;2023-08-21T09:56:01;4.30;;;1.40;;
2462;SDS011;1243;54.298;10.172;2023-08-21T09:58:29;2.90;;;1.50;;
2462;SDS011;1243;54.298;10.172;2023-08-21T10:00:58;7.40;;;1.63;;
2462;SDS011;1243;54.298;10.172;2023-08-21T10:03:25;3.03;;;1.20;;
2462;SDS011;1243;54.298;10.172;2023-08-21T10:05:51;3.53;;;1.43;;
2462;SDS011;1243;54.298;10.172;2023-08-21T10:08:21;3.90;;;1.60;;
2462;SDS011;1243;54.298;10.172;2023-08-21T10:10:49;6.30;;;1.80;;
2462;SDS011;1243;54.298;10.172;2023-08-21T10:13:15;3.23;;;1.53;;
2462;SDS011;1243;54.298;10.172;2023-08-21T10:15:41;3.50;;;1.67;;
2462;SDS011;1243;54.298;10.172;2023-08-21T10:18:22;1.97;;;1.37;;
2462;SDS011;1243;54.298;10.172;2023-08-21T10:23:38;2.53;;;1.53;;
2462;SDS011;1243;54.298;10.172;2023-08-21T10:26:05;5.03;;;1.80;;
2462;SDS011;1243;54.298;10.172;2023-08-21T10:28:52;5.23;;;1.77;;
2462;SDS011;1243;54.298;10.172;2023-08-21T10:34:05;5.40;;;1.43;;
2462;SDS011;1243;54.298;10.172;2023-08-21T10:36:38;6.27;;;1.10;;
2462;SDS011;1243;54.298;10.172;2023-08-21T10:39:20;2.87;;;1.27;;
2462;SDS011;1243;54.298;10.172;2023-08-21T10:41:54;5.20;;;1.37;;
2462;SDS011;1243;54.298;10.172;2023-08-21T10:47:30;5.87;;;1.47;;
2462;SDS011;1243;54.298;10.172;2023-08-21T10:50:06;3.10;;;1.33;;
2462;SDS011;1243;54.298;10.172;2023-08-21T10:52:36;3.37;;;1.40;;
2462;SDS011;1243;54.298;10.172;2023-08-21T10:55:06;2.37;;;1.30;;
2462;SDS011;1243;54.298;10.172;2023-08-21T10:57:34;3.27;;;1.70;;
2462;SDS011;1243;54.298;10.172;2023-08-21T11:00:04;4.30;;;1.17;;
2462;SDS011;1243;54.298;10.172;2023-08-21T11:02:35;3.30;;;1.30;;
2462;SDS011;1243;54.298;10.172;2023-08-21T11:05:01;4.80;;;1.13;;
2462;SDS011;1243;54.298;10.172;2023-08-21T11:07:32;2.50;;;1.00;;
2462;SDS011;1243;54.298;10.172;2023-08-21T11:10:02;2.90;;;1.50;;
2462;SDS011;1243;54.298;10.172;2023-08-21T11:12:28;3.70;;;1.43;;
2462;SDS011;1243;54.298;10.172;2023-08-21T11:14:55;4.97;;;2.10;;
2462;SDS011;1243;54.298;10.172;2023-08-21T11:17:21;3.83;;;1.07;;
2462;SDS011;1243;54.298;10.172;2023-08-21T11:19:48;1.43;;;0.90;;
2462;SDS011;1243;54.298;10.172;2023-08-21T11:22:15;3.00;;;1.10;;
2462;SDS011;1243;54.298;10.172;2023-08-21T11:24:45;5.90;;;1.13;;
2462;SDS011;1243;54.298;10.172;2023-08-21T11:27:12;2.90;;;0.87;;
2462;SDS011;1243;54.298;10.172;2023-08-21T11:29:41;3.20;;;1.00;;
2462;SDS011;1243;54.298;10.172;2023-08-21T11:32:08;1.63;;;1.00;;
2462;SDS011;1243;54.298;10.172;2023-08-21T11:34:42;3.17;;;1.00;;
2462;SDS011;1243;54.298;10.172;2023-08-21T11:37:19;2.60;;;1.10;;
2462;SDS011;1243;54.298;10.172;2023-08-21T11:39:49;1.63;;;0.87;;
2462;SDS011;1243;54.298;10.172;2023-08-21T11:42:16;1.43;;;0.87;;
2462;SDS011;1243;54.298;10.172;2023-08-21T11:44:44;2.60;;;1.17;;
2462;SDS011;1243;54.298;10.172;2023-08-21T11:47:11;2.07;;;1.30;;
2462;SDS011;1243;54.298;10.172;2023-08-21T11:49:41;2.00;;;1.00;;
2462;SDS011;1243;54.298;10.172;2023-08-21T11:52:09;2.83;;;0.80;;
2462;SDS011;1243;54.298;10.172;2023-08-21T11:54:36;2.30;;;1.00;;
2462;SDS011;1243;54.298;10.172;2023-08-21T11:57:05;3.50;;;0.93;;
2462;SDS011;1243;54.298;10.172;2023-08-21T11:59:33;2.30;;;1.13;;
2462;SDS011;1243;54.298;10.172;2023-08-21T12:01:59;3.40;;;0.70;;
2462;SDS011;1243;54.298;10.172;2023-08-21T12:04:24;2.20;;;0.93;;
2462;SDS011;1243;54.298;10.172;2023-08-21T12:06:50;1.50;;;1.00;;
2462;SDS011;1243;54.298;10.172;2023-08-21T12:09:17;2.07;;;0.90;;
2462;SDS011;1243;54.298;10.172;2023-08-21T12:11:44;2.00;;;1.40;;
2462;SDS011;1243;54.298;10.172;2023-08-21T12:14:10;2.07;;;0.97;;
2462;SDS011;1243;54.298;10.172;2023-08-21T12:16:36;1.87;;;1.00;;
2462;SDS011;1243;54.298;10.172;2023-08-21T12:19:02;7.83;;;1.90;;
2462;SDS011;1243;54.298;10.172;2023-08-21T12:21:28;1.40;;;0.90;;
2462;SDS011;1243;54.298;10.172;2023-08-21T12:23:54;3.27;;;0.77;;
2462;SDS011;1243;54.298;10.172;2023-08-21T12:26:19;2.13;;;0.70;;
2462;SDS011;1243;54.298;10.172;2023-08-21T12:28:48;4.43;;;0.90;;
2462;SDS011;1243;54.298;10.172;2023-08-21T12:31:14;2.83;;;0.97;;
2462;SDS011;1243;54.298;10.172;2023-08-21T12:33:40;3.00;;;1.10;;
2462;SDS011;1243;54.298;10.172;2023-08-21T12:36:07;4.73;;;0.80;;
2462;SDS011;1243;54.298;10.172;2023-08-21T12:38:35;3.73;;;1.37;;
2462;SDS011;1243;54.298;10.172;2023-08-21T12:41:01;1.83;;;0.60;;
2462;SDS011;1243;54.298;10.172;2023-08-21T12:43:27;1.37;;;1.07;;
2462;SDS011;1243;54.298;10.172;2023-08-21T12:45:55;1.77;;;0.70;;
2462;SDS011;1243;54.298;10.172;2023-08-21T12:48:20;1.93;;;0.63;;
2462;SDS011;1243;54.298;10.172;2023-08-21T12:50:46;5.63;;;0.90;;
2462;SDS011;1243;54.298;10.172;2023-08-21T12:53:12;2.03;;;0.83;;
2462;SDS011;1243;54.298;10.172;2023-08-21T12:55:37;1.20;;;0.80;;
2462;SDS011;1243;54.298;10.172;2023-08-21T12:58:03;1.30;;;0.80;;
2462;SDS011;1243;54.298;10.172;2023-08-21T13:00:29;2.27;;;0.73;;
2462;SDS011;1243;54.298;10.172;2023-08-21T13:02:57;0.90;;;0.60;;
2462;SDS011;1243;54.298;10.172;2023-08-21T13:05:23;1.90;;;1.07;;
2462;SDS011;1243;54.298;10.172;2023-08-21T13:07:48;1.30;;;0.60;;
2462;SDS011;1243;54.298;10.172;2023-08-21T13:10:14;1.73;;;1.00;;
2462;SDS011;1243;54.298;10.172;2023-08-21T13:12:40;1.40;;;0.77;;
2462;SDS011;1243;54.298;10.172;2023-08-21T13:15:05;1.83;;;0.80;;
2462;SDS011;1243;54.298;10.172;2023-08-21T13:17:34;1.63;;;0.80;;
2462;SDS011;1243;54.298;10.172;2023-08-21T13:20:00;1.50;;;0.80;;
2462;SDS011;1243;54.298;10.172;2023-08-21T13:22:26;1.43;;;0.70;;
2462;SDS011;1243;54.298;10.172;2023-08-21T13:24:52;3.27;;;0.80;;
2462;SDS011;1243;54.298;10.172;2023-08-21T13:27:17;2.53;;;0.90;;
2462;SDS011;1243;54.298;10.172;2023-08-21T13:29:45;4.23;;;0.70;;
2462;SDS011;1243;54.298;10.172;2023-08-21T13:32:11;1.70;;;0.70;;
2462;SDS011;1243;54.298;10.172;2023-08-21T13:34:37;5.37;;;0.90;;
2462;SDS011;1243;54.298;10.172;2023-08-21T13:37:03;1.50;;;0.80;;
2462;SDS011;1243;54.298;10.172;2023-08-21T13:39:29;1.90;;;1.10;;
2462;SDS011;1243;54.298;10.172;2023-08-21T13:41:55;2.23;;;0.87;;
2462;SDS011;1243;54.298;10.172;2023-08-21T13:44:21;1.80;;;0.70;;
2462;SDS011;1243;54.298;10.172;2023-08-21T13:46:47;3.07;;;0.80;;
2462;SDS011;1243;54.298;10.172;2023-08-21T13:49:13;1.27;;;1.10;;
2462;SDS011;1243;54.298;10.172;2023-08-21T13:51:38;5.73;;;0.83;;
2462;SDS011;1243;54.298;10.172;2023-08-21T13:54:04;1.37;;;0.90;;
2462;SDS011;1243;54.298;10.172;2023-08-21T13:56:30;1.30;;;0.90;;
2462;SDS011;1243;54.298;10.172;2023-08-21T13:58:56;4.70;;;1.10;;
2462;SDS011;1243;54.298;10.172;2023-08-21T14:01:21;2.10;;;0.90;;
2462;SDS011;1243;54.298;10.172;2023-08-21T14:03:47;1.87;;;1.13;;
2462;SDS011;1243;54.298;10.172;2023-08-21T14:06:13;1.33;;;0.70;;
2462;SDS011;1243;54.298;10.172;2023-08-21T14:08:39;2.07;;;0.83;;
2462;SDS011;1243;54.298;10.172;2023-08-21T14:11:04;1.40;;;0.70;;
2462;SDS011;1243;54.298;10.172;2023-08-21T14:13:30;2.80;;;1.37;;
2462;SDS011;1243;54.298;10.172;2023-08-21T14:15:56;3.30;;;1.30;;
2462;SDS011;1243;54.298;10.172;2023-08-21T14:18:22;1.87;;;0.70;;
2462;SDS011;1243;54.298;10.172;2023-08-21T14:20:47;1.70;;;1.00;;
2462;SDS011;1243;54.298;10.172;2023-08-21T14:23:13;1.53;;;0.93;;
2462;SDS011;1243;54.298;10.172;2023-08-21T14:25:39;2.23;;;1.30;;
2462;SDS011;1243;54.298;10.172;2023-08-21T14:28:04;3.93;;;1.20;;
2462;SDS011;1243;54.298;10.172;2023-08-21T14:30:31;4.40;;;1.20;;
2462;SDS011;1243;54.298;10.172;2023-08-21T14:32:57;3.47;;;1.13;;
2462;SDS011;1243;54.298;10.172;2023-08-21T14:35:22;1.37;;;0.77;;
2462;SDS011;1243;54.298;10.172;2023-08-21T14:37:48;1.40;;;0.73;;
2462;SDS011;1243;54.298;10.172;2023-08-21T14:40:14;1.90;;;1.00;;
2462;SDS011;1243;54.298;10.172;2023-08-21T14:42:39;3.00;;;0.93;;
2462;SDS011;1243;54.298;10.172;2023-08-21T14:45:05;2.83;;;1.00;;
2462;SDS011;1243;54.298;10.172;2023-08-21T14:47:31;1.40;;;0.80;;
2462;SDS011;1243;54.298;10.172;2023-08-21T14:49:57;1.17;;;0.70;;
2462;SDS011;1243;54.298;10.172;2023-08-21T14:52:23;1.70;;;0.70;;
2462;SDS011;1243;54.298;10.172;2023-08-21T14:54:53;2.70;;;0.90;;
2462;SDS011;1243;54.298;10.172;2023-08-21T14:57:18;1.40;;;1.03;;
2462;SDS011;1243;54.298;10.172;2023-08-21T14:59:44;1.43;;;1.20;;
2462;SDS011;1243;54.298;10.172;2023-08-21T15:02:10;4.40;;;1.33;;
2462;SDS011;1243;54.298;10.172;2023-08-21T15:04:36;1.50;;;0.90;;